73.5°F
Current conditions from King Hill
Updated every 5 minutes
 
  Tuesday September 2, 2014

Station Historical Data
Daily Summary for March 5, 2012 Units:  Both    English   Metric
« Previous Day
Next Day »
Daily Weekly Monthly Yearly Custom
  High: Low: Average:
Temperature: 19.8 °F /  -6.8 °C 4.7 °F /  -15.2 °C 10.9 °F /  -11.7 °C
Dew Point: 6.2 °F /  -14.3 °C -2.0 °F /  -18.9 °C 1.2 °F /  -17.1 °C
Humidity: 81% 45% 66%
Wind Speed: 6.0mph /  9.7km/h - 2.5mph /  4km/h
Wind Gust: 18.0mph /  29km/h - -
Wind- - WNW
Pressure: 30.36 in /  1028 hPa 29.67 in /  1004.6 hPa -
Precipitation: 0.00 in /  0 mm    
Historical Graphs
 
 
Tabular Data for March 5, 2012
Time Temperature Dew Point Pressure Wind Wind Speed Wind Gust Humidity Daily Rainfall
00:00 11.4 °F /  -11.4 °C 6.2 °F /  -14.3 °C 29.67in /  1004.6hPa NNW 1.0mph /  1.6km/h 8.0mph /  12.9km/h 79% 0.00in /  0mm
00:05 11.2 °F /  -11.6 °C 6.0 °F /  -14.4 °C 29.67in /  1004.6hPa NNW 2.0mph /  3.2km/h 5.0mph /  8km/h 79% 0.00in /  0mm
00:10 11.1 °F /  -11.6 °C 5.9 °F /  -14.5 °C 29.67in /  1004.6hPa Calm   5.0mph /  8km/h 79% 0.00in /  0mm
00:15 11.0 °F /  -11.7 °C 6.0 °F /  -14.4 °C 29.68in /  1005hPa Calm   5.0mph /  8km/h 80% 0.00in /  0mm
00:20 10.9 °F /  -11.7 °C 5.9 °F /  -14.5 °C 29.68in /  1005hPa Calm     80% 0.00in /  0mm
00:25 10.8 °F /  -11.8 °C 5.8 °F /  -14.6 °C 29.68in /  1005hPa NNW 1.0mph /  1.6km/h 3.0mph /  4.8km/h 80% 0.00in /  0mm
00:30 10.9 °F /  -11.7 °C 5.9 °F /  -14.5 °C 29.68in /  1005hPa NNW 1.0mph /  1.6km/h 4.0mph /  6.4km/h 80% 0.00in /  0mm
00:35 10.9 °F /  -11.7 °C 5.9 °F /  -14.5 °C 29.68in /  1005hPa NNW 1.0mph /  1.6km/h 4.0mph /  6.4km/h 80% 0.00in /  0mm
00:45 11.0 °F /  -11.7 °C 6.0 °F /  -14.4 °C 29.69in /  1005.3hPa Calm   3.0mph /  4.8km/h 80% 0.00in /  0mm
00:50 11.0 °F /  -11.7 °C 6.0 °F /  -14.4 °C 29.68in /  1005hPa NW 4.0mph /  6.4km/h 7.0mph /  11.3km/h 80% 0.00in /  0mm
00:55 10.9 °F /  -11.7 °C 5.9 °F /  -14.5 °C 29.69in /  1005.3hPa NW 5.0mph /  8km/h 11.0mph /  17.7km/h 80% 0.00in /  0mm
01:00 10.8 °F /  -11.8 °C 5.8 °F /  -14.6 °C 29.69in /  1005.3hPa NNW 4.0mph /  6.4km/h 11.0mph /  17.7km/h 80% 0.00in /  0mm
01:05 10.7 °F /  -11.8 °C 5.7 °F /  -14.6 °C 29.69in /  1005.3hPa NW 1.0mph /  1.6km/h 7.0mph /  11.3km/h 80% 0.00in /  0mm
01:10 10.6 °F /  -11.9 °C 5.7 °F /  -14.6 °C 29.70in /  1005.6hPa WNW 2.0mph /  3.2km/h 6.0mph /  9.7km/h 80% 0.00in /  0mm
01:15 10.6 °F /  -11.9 °C 5.7 °F /  -14.6 °C 29.70in /  1005.6hPa NNW 3.0mph /  4.8km/h 7.0mph /  11.3km/h 80% 0.00in /  0mm
01:20 10.5 °F /  -11.9 °C 5.6 °F /  -14.7 °C 29.70in /  1005.6hPa NW 1.0mph /  1.6km/h 7.0mph /  11.3km/h 80% 0.00in /  0mm
01:30 10.6 °F /  -11.9 °C 5.7 °F /  -14.6 °C 29.70in /  1005.6hPa NNW 1.0mph /  1.6km/h 5.0mph /  8km/h 80% 0.00in /  0mm
01:35 10.5 °F /  -11.9 °C 5.6 °F /  -14.7 °C 29.70in /  1005.6hPa NW 2.0mph /  3.2km/h 5.0mph /  8km/h 80% 0.00in /  0mm
01:40 10.5 °F /  -11.9 °C 5.8 °F /  -14.6 °C 29.70in /  1005.6hPa NW 2.0mph /  3.2km/h 5.0mph /  8km/h 81% 0.00in /  0mm
01:45 10.5 °F /  -11.9 °C 5.6 °F /  -14.7 °C 29.71in /  1006hPa NW 2.0mph /  3.2km/h 4.0mph /  6.4km/h 80% 0.00in /  0mm
01:50 10.4 °F /  -12 °C 5.7 °F /  -14.6 °C 29.71in /  1006hPa NNW 2.0mph /  3.2km/h 4.0mph /  6.4km/h 81% 0.00in /  0mm
01:55 10.3 °F /  -12.1 °C 5.4 °F /  -14.8 °C 29.71in /  1006hPa NW 4.0mph /  6.4km/h 7.0mph /  11.3km/h 80% 0.00in /  0mm
02:00 10.1 °F /  -12.2 °C 5.2 °F /  -14.9 °C 29.71in /  1006hPa Calm   7.0mph /  11.3km/h 80% 0.00in /  0mm
02:05 10.0 °F /  -12.2 °C 5.1 °F /  -14.9 °C 29.71in /  1006hPa NW 1.0mph /  1.6km/h 5.0mph /  8km/h 80% 0.00in /  0mm
02:10 10.0 °F /  -12.2 °C 5.1 °F /  -14.9 °C 29.71in /  1006hPa Calm   3.0mph /  4.8km/h 80% 0.00in /  0mm
02:15 9.9 °F /  -12.3 °C 5.0 °F /  -15 °C 29.72in /  1006.3hPa NW 2.0mph /  3.2km/h 5.0mph /  8km/h 80% 0.00in /  0mm
02:20 9.9 °F /  -12.3 °C 5.0 °F /  -15 °C 29.72in /  1006.3hPa NW 4.0mph /  6.4km/h 9.0mph /  14.5km/h 80% 0.00in /  0mm
02:25 9.9 °F /  -12.3 °C 5.0 °F /  -15 °C 29.72in /  1006.3hPa NW 2.0mph /  3.2km/h 9.0mph /  14.5km/h 80% 0.00in /  0mm
02:30 9.8 °F /  -12.3 °C 4.9 °F /  -15.1 °C 29.72in /  1006.3hPa NNW 2.0mph /  3.2km/h 7.0mph /  11.3km/h 80% 0.00in /  0mm
02:35 9.6 °F /  -12.4 °C 4.7 °F /  -15.2 °C 29.73in /  1006.7hPa NNW 1.0mph /  1.6km/h 7.0mph /  11.3km/h 80% 0.00in /  0mm
02:40 9.5 °F /  -12.5 °C 4.6 °F /  -15.2 °C 29.73in /  1006.7hPa NNW 1.0mph /  1.6km/h 6.0mph /  9.7km/h 80% 0.00in /  0mm
02:45 9.3 °F /  -12.6 °C 4.4 °F /  -15.3 °C 29.73in /  1006.7hPa NNW 4.0mph /  6.4km/h 7.0mph /  11.3km/h 80% 0.00in /  0mm
02:50 9.1 °F /  -12.7 °C 4.2 °F /  -15.4 °C 29.72in /  1006.3hPa NNW 1.0mph /  1.6km/h 7.0mph /  11.3km/h 80% 0.00in /  0mm
02:55 9.0 °F /  -12.8 °C 4.1 °F /  -15.5 °C 29.73in /  1006.7hPa NW 2.0mph /  3.2km/h 6.0mph /  9.7km/h 80% 0.00in /  0mm
03:00 9.0 °F /  -12.8 °C 4.1 °F /  -15.5 °C 29.73in /  1006.7hPa NW 2.0mph /  3.2km/h 6.0mph /  9.7km/h 80% 0.00in /  0mm
03:05 9.0 °F /  -12.8 °C 4.1 °F /  -15.5 °C 29.73in /  1006.7hPa NW 2.0mph /  3.2km/h 5.0mph /  8km/h 80% 0.00in /  0mm
03:15 8.7 °F /  -12.9 °C 3.5 °F /  -15.8 °C 29.74in /  1007hPa NW 3.0mph /  4.8km/h 6.0mph /  9.7km/h 79% 0.00in /  0mm
03:20 8.6 °F /  -13 °C 3.4 °F /  -15.9 °C 29.74in /  1007hPa NNW 1.0mph /  1.6km/h 6.0mph /  9.7km/h 79% 0.00in /  0mm
03:25 8.4 °F /  -13.1 °C 3.2 °F /  -16 °C 29.74in /  1007hPa NW 1.0mph /  1.6km/h 6.0mph /  9.7km/h 79% 0.00in /  0mm
03:30 8.3 °F /  -13.2 °C 3.1 °F /  -16.1 °C 29.75in /  1007.3hPa NW 2.0mph /  3.2km/h 5.0mph /  8km/h 79% 0.00in /  0mm
03:40 8.1 °F /  -13.3 °C 2.9 °F /  -16.2 °C 29.75in /  1007.3hPa Calm   5.0mph /  8km/h 79% 0.00in /  0mm
03:45 8.0 °F /  -13.3 °C 2.8 °F /  -16.2 °C 29.76in /  1007.7hPa Calm   1.0mph /  1.6km/h 79% 0.00in /  0mm
03:50 7.9 °F /  -13.4 °C 2.7 °F /  -16.3 °C 29.76in /  1007.7hPa Calm   1.0mph /  1.6km/h 79% 0.00in /  0mm
03:55 7.8 °F /  -13.4 °C 2.6 °F /  -16.3 °C 29.76in /  1007.7hPa Calm   2.0mph /  3.2km/h 79% 0.00in /  0mm
04:00 7.6 °F /  -13.6 °C 2.5 °F /  -16.4 °C 29.76in /  1007.7hPa NW 2.0mph /  3.2km/h 4.0mph /  6.4km/h 79% 0.00in /  0mm
04:05 7.4 °F /  -13.7 °C 2.0 °F /  -16.7 °C 29.77in /  1008hPa NW 1.0mph /  1.6km/h 5.0mph /  8km/h 78% 0.00in /  0mm
04:10 7.3 °F /  -13.7 °C 2.2 °F /  -16.6 °C 29.77in /  1008hPa Calm   5.0mph /  8km/h 79% 0.00in /  0mm
04:15 7.2 °F /  -13.8 °C 1.8 °F /  -16.8 °C 29.78in /  1008.4hPa Calm   4.0mph /  6.4km/h 78% 0.00in /  0mm
04:20 7.0 °F /  -13.9 °C 1.6 °F /  -16.9 °C 29.78in /  1008.4hPa Calm   5.0mph /  8km/h 78% 0.00in /  0mm
04:25 6.9 °F /  -13.9 °C 1.5 °F /  -16.9 °C 29.78in /  1008.4hPa Calm   5.0mph /  8km/h 78% 0.00in /  0mm
04:30 6.7 °F /  -14.1 °C 1.3 °F /  -17.1 °C 29.78in /  1008.4hPa Calm   1.0mph /  1.6km/h 78% 0.00in /  0mm
04:35 6.5 °F /  -14.2 °C 1.1 °F /  -17.2 °C 29.79in /  1008.7hPa Calm     78% 0.00in /  0mm
04:40 6.3 °F /  -14.3 °C 0.9 °F /  -17.3 °C 29.79in /  1008.7hPa NNW 1.0mph /  1.6km/h 4.0mph /  6.4km/h 78% 0.00in /  0mm
04:50 6.0 °F /  -14.4 °C 0.6 °F /  -17.4 °C 29.80in /  1009hPa Calm   5.0mph /  8km/h 78% 0.00in /  0mm
05:00 5.6 °F /  -14.7 °C 0.2 °F /  -17.7 °C 29.80in /  1009hPa Calm   3.0mph /  4.8km/h 78% 0.00in /  0mm
05:05 5.6 °F /  -14.7 °C 0.2 °F /  -17.7 °C 29.80in /  1009hPa Calm   3.0mph /  4.8km/h 78% 0.00in /  0mm
05:10 5.5 °F /  -14.7 °C 0.1 °F /  -17.7 °C 29.80in /  1009hPa Calm   3.0mph /  4.8km/h 78% 0.00in /  0mm
05:15 5.5 °F /  -14.7 °C 0.4 °F /  -17.6 °C 29.81in /  1009.4hPa NNW 1.0mph /  1.6km/h 3.0mph /  4.8km/h 79% 0.00in /  0mm
05:20 5.4 °F /  -14.8 °C 0.0 °F /  -17.8 °C 29.81in /  1009.4hPa Calm   3.0mph /  4.8km/h 78% 0.00in /  0mm
05:30 5.3 °F /  -14.8 °C -0.1 °F /  -17.8 °C 29.81in /  1009.4hPa Calm   1.0mph /  1.6km/h 78% 0.00in /  0mm
05:35 5.2 °F /  -14.9 °C 0.1 °F /  -17.7 °C 29.82in /  1009.7hPa Calm   3.0mph /  4.8km/h 79% 0.00in /  0mm
05:40 5.1 °F /  -14.9 °C -0.3 °F /  -17.9 °C 29.82in /  1009.7hPa Calm   3.0mph /  4.8km/h 78% 0.00in /  0mm
05:45 5.1 °F /  -14.9 °C -0.3 °F /  -17.9 °C 29.82in /  1009.7hPa Calm   3.0mph /  4.8km/h 78% 0.00in /  0mm
05:50 5.0 °F /  -15 °C -0.4 °F /  -18 °C 29.83in /  1010hPa Calm     78% 0.00in /  0mm
06:00 5.0 °F /  -15 °C -0.4 °F /  -18 °C 29.83in /  1010hPa Calm   2.0mph /  3.2km/h 78% 0.00in /  0mm
06:05 5.0 °F /  -15 °C -0.4 °F /  -18 °C 29.84in /  1010.4hPa Calm   2.0mph /  3.2km/h 78% 0.00in /  0mm
06:10 5.0 °F /  -15 °C -0.4 °F /  -18 °C 29.84in /  1010.4hPa Calm   2.0mph /  3.2km/h 78% 0.00in /  0mm
06:15 4.9 °F /  -15.1 °C -0.7 °F /  -18.2 °C 29.84in /  1010.4hPa Calm   3.0mph /  4.8km/h 77% 0.00in /  0mm
06:20 4.8 °F /  -15.1 °C -0.8 °F /  -18.2 °C 29.84in /  1010.4hPa Calm   4.0mph /  6.4km/h 77% 0.00in /  0mm
06:25 4.8 °F /  -15.1 °C -0.8 °F /  -18.2 °C 29.85in /  1010.7hPa Calm   4.0mph /  6.4km/h 77% 0.00in /  0mm
06:30 4.7 °F /  -15.2 °C -0.9 °F /  -18.3 °C 29.85in /  1010.7hPa Calm   2.0mph /  3.2km/h 77% 0.00in /  0mm
06:40 4.7 °F /  -15.2 °C -0.9 °F /  -18.3 °C 29.86in /  1011.1hPa Calm   4.0mph /  6.4km/h 77% 0.00in /  0mm
06:45 4.7 °F /  -15.2 °C -0.9 °F /  -18.3 °C 29.86in /  1011.1hPa NNW 2.0mph /  3.2km/h 5.0mph /  8km/h 77% 0.00in /  0mm
06:50 4.7 °F /  -15.2 °C -1.2 °F /  -18.4 °C 29.86in /  1011.1hPa NW 3.0mph /  4.8km/h 8.0mph /  12.9km/h 76% 0.00in /  0mm
06:55 4.7 °F /  -15.2 °C -1.5 °F /  -18.6 °C 29.87in /  1011.4hPa NW 2.0mph /  3.2km/h 8.0mph /  12.9km/h 75% 0.00in /  0mm
07:00 4.7 °F /  -15.2 °C -1.5 °F /  -18.6 °C 29.87in /  1011.4hPa NNW 1.0mph /  1.6km/h 7.0mph /  11.3km/h 75% 0.00in /  0mm
07:05 4.9 °F /  -15.1 °C -1.3 °F /  -18.5 °C 29.88in /  1011.7hPa NNW 1.0mph /  1.6km/h 6.0mph /  9.7km/h 75% 0.00in /  0mm
07:10 4.9 °F /  -15.1 °C -1.3 °F /  -18.5 °C 29.88in /  1011.7hPa NW 3.0mph /  4.8km/h 7.0mph /  11.3km/h 75% 0.00in /  0mm
07:15 4.8 °F /  -15.1 °C -1.7 °F /  -18.7 °C 29.89in /  1012.1hPa NW 3.0mph /  4.8km/h 7.0mph /  11.3km/h 74% 0.00in /  0mm
07:20 4.7 °F /  -15.2 °C -1.8 °F /  -18.8 °C 29.89in /  1012.1hPa NNW 3.0mph /  4.8km/h 6.0mph /  9.7km/h 74% 0.00in /  0mm
07:25 4.7 °F /  -15.2 °C -1.8 °F /  -18.8 °C 29.89in /  1012.1hPa NW 3.0mph /  4.8km/h 7.0mph /  11.3km/h 74% 0.00in /  0mm
07:30 4.8 °F /  -15.1 °C -1.7 °F /  -18.7 °C 29.89in /  1012.1hPa NW 3.0mph /  4.8km/h 10.0mph /  16.1km/h 74% 0.00in /  0mm
07:35 5.0 °F /  -15 °C -1.5 °F /  -18.6 °C 29.90in /  1012.4hPa NNW 2.0mph /  3.2km/h 10.0mph /  16.1km/h 74% 0.00in /  0mm
07:45 5.2 °F /  -14.9 °C -1.3 °F /  -18.5 °C 29.90in /  1012.4hPa NNW 1.0mph /  1.6km/h 6.0mph /  9.7km/h 74% 0.00in /  0mm
07:50 5.3 °F /  -14.8 °C -1.2 °F /  -18.4 °C 29.91in /  1012.8hPa WNW 2.0mph /  3.2km/h 6.0mph /  9.7km/h 74% 0.00in /  0mm
07:55 5.4 °F /  -14.8 °C -1.1 °F /  -18.4 °C 29.91in /  1012.8hPa NW 2.0mph /  3.2km/h 7.0mph /  11.3km/h 74% 0.00in /  0mm
08:00 5.5 °F /  -14.7 °C -1.3 °F /  -18.5 °C 29.91in /  1012.8hPa WNW 3.0mph /  4.8km/h 7.0mph /  11.3km/h 73% 0.00in /  0mm
08:05 5.6 °F /  -14.7 °C -1.2 °F /  -18.4 °C 29.91in /  1012.8hPa NW 3.0mph /  4.8km/h 6.0mph /  9.7km/h 73% 0.00in /  0mm
08:10 5.7 °F /  -14.6 °C -1.1 °F /  -18.4 °C 29.92in /  1013.1hPa NW 3.0mph /  4.8km/h 9.0mph /  14.5km/h 73% 0.00in /  0mm
08:15 5.9 °F /  -14.5 °C -1.2 °F /  -18.4 °C 29.92in /  1013.1hPa WNW 2.0mph /  3.2km/h 9.0mph /  14.5km/h 72% 0.00in /  0mm
08:20 6.1 °F /  -14.4 °C -1.0 °F /  -18.3 °C 29.92in /  1013.1hPa NW 4.0mph /  6.4km/h 7.0mph /  11.3km/h 72% 0.00in /  0mm
08:25 6.1 °F /  -14.4 °C -1.6 °F /  -18.7 °C 29.92in /  1013.1hPa NW 5.0mph /  8km/h 8.0mph /  12.9km/h 70% 0.00in /  0mm
08:30 6.1 °F /  -14.4 °C -1.6 °F /  -18.7 °C 29.93in /  1013.4hPa WNW 3.0mph /  4.8km/h 8.0mph /  12.9km/h 70% 0.00in /  0mm
08:35 6.2 °F /  -14.3 °C -1.8 °F /  -18.8 °C 29.93in /  1013.4hPa WNW 2.0mph /  3.2km/h 6.0mph /  9.7km/h 69% 0.00in /  0mm
08:40 6.3 °F /  -14.3 °C -1.7 °F /  -18.7 °C 29.93in /  1013.4hPa WNW 2.0mph /  3.2km/h 6.0mph /  9.7km/h 69% 0.00in /  0mm
08:45 6.3 °F /  -14.3 °C -2.0 °F /  -18.9 °C 29.93in /  1013.4hPa Calm   5.0mph /  8km/h 68% 0.00in /  0mm
08:50 6.5 °F /  -14.2 °C -1.8 °F /  -18.8 °C 29.94in /  1013.8hPa Calm   5.0mph /  8km/h 68% 0.00in /  0mm
08:55 6.8 °F /  -14 °C -1.8 °F /  -18.8 °C 29.94in /  1013.8hPa WNW 1.0mph /  1.6km/h 4.0mph /  6.4km/h 67% 0.00in /  0mm
09:00 7.1 °F /  -13.8 °C -1.6 °F /  -18.7 °C 29.94in /  1013.8hPa West 3.0mph /  4.8km/h 5.0mph /  8km/h 67% 0.00in /  0mm
09:05 7.0 °F /  -13.9 °C -1.6 °F /  -18.7 °C 29.95in /  1014.1hPa WNW 2.0mph /  3.2km/h 6.0mph /  9.7km/h 67% 0.00in /  0mm
09:10 7.1 °F /  -13.8 °C -1.2 °F /  -18.4 °C 29.95in /  1014.1hPa West 4.0mph /  6.4km/h 6.0mph /  9.7km/h 68% 0.00in /  0mm
09:15 7.2 °F /  -13.8 °C -1.1 °F /  -18.4 °C 29.95in /  1014.1hPa NW 2.0mph /  3.2km/h 6.0mph /  9.7km/h 68% 0.00in /  0mm
09:20 7.7 °F /  -13.5 °C -0.4 °F /  -18 °C 29.95in /  1014.1hPa West 1.0mph /  1.6km/h 5.0mph /  8km/h 69% 0.00in /  0mm
09:25 7.8 °F /  -13.4 °C -0.9 °F /  -18.3 °C 29.96in /  1014.4hPa Calm   5.0mph /  8km/h 67% 0.00in /  0mm
09:30 8.0 °F /  -13.3 °C -0.7 °F /  -18.2 °C 29.96in /  1014.4hPa WNW 2.0mph /  3.2km/h 6.0mph /  9.7km/h 67% 0.00in /  0mm
09:35 7.8 °F /  -13.4 °C -0.9 °F /  -18.3 °C 29.96in /  1014.4hPa West 3.0mph /  4.8km/h 6.0mph /  9.7km/h 67% 0.00in /  0mm
09:40 7.8 °F /  -13.4 °C -1.2 °F /  -18.4 °C 29.97in /  1014.8hPa West 2.0mph /  3.2km/h 7.0mph /  11.3km/h 66% 0.00in /  0mm
09:50 8.1 °F /  -13.3 °C -1.2 °F /  -18.4 °C 29.97in /  1014.8hPa SW 3.0mph /  4.8km/h 7.0mph /  11.3km/h 65% 0.00in /  0mm
09:55 8.5 °F /  -13.1 °C -1.2 °F /  -18.4 °C 29.97in /  1014.8hPa SW 4.0mph /  6.4km/h 6.0mph /  9.7km/h 64% 0.00in /  0mm
10:00 8.7 °F /  -12.9 °C -1.0 °F /  -18.3 °C 29.97in /  1014.8hPa Calm   6.0mph /  9.7km/h 64% 0.00in /  0mm
10:05 8.9 °F /  -12.8 °C -1.1 °F /  -18.4 °C 29.98in /  1015.1hPa WSW 4.0mph /  6.4km/h 8.0mph /  12.9km/h 63% 0.00in /  0mm
10:10 8.6 °F /  -13 °C -1.8 °F /  -18.8 °C 29.98in /  1015.1hPa West 4.0mph /  6.4km/h 8.0mph /  12.9km/h 62% 0.00in /  0mm
10:15 8.4 °F /  -13.1 °C -1.6 °F /  -18.7 °C 29.98in /  1015.1hPa WNW 4.0mph /  6.4km/h 10.0mph /  16.1km/h 63% 0.00in /  0mm
10:20 8.3 °F /  -13.2 °C -1.7 °F /  -18.7 °C 29.98in /  1015.1hPa WNW 6.0mph /  9.7km/h 10.0mph /  16.1km/h 63% 0.00in /  0mm
10:30 8.7 °F /  -12.9 °C -1.7 °F /  -18.7 °C 29.99in /  1015.5hPa WNW 4.0mph /  6.4km/h 8.0mph /  12.9km/h 62% 0.00in /  0mm
10:35 8.7 °F /  -12.9 °C -1.7 °F /  -18.7 °C 29.99in /  1015.5hPa WNW 3.0mph /  4.8km/h 7.0mph /  11.3km/h 62% 0.00in /  0mm
10:40 9.1 °F /  -12.7 °C -1.3 °F /  -18.5 °C 29.99in /  1015.5hPa West 3.0mph /  4.8km/h 7.0mph /  11.3km/h 62% 0.00in /  0mm
10:45 9.2 °F /  -12.7 °C -1.5 °F /  -18.6 °C 29.99in /  1015.5hPa SW 3.0mph /  4.8km/h 8.0mph /  12.9km/h 61% 0.00in /  0mm
10:50 9.4 °F /  -12.6 °C -1.3 °F /  -18.5 °C 29.99in /  1015.5hPa West 2.0mph /  3.2km/h 8.0mph /  12.9km/h 61% 0.00in /  0mm
10:55 9.9 °F /  -12.3 °C -1.6 °F /  -18.7 °C 29.99in /  1015.5hPa SW 5.0mph /  8km/h 11.0mph /  17.7km/h 59% 0.00in /  0mm
11:00 9.4 °F /  -12.6 °C -2.0 °F /  -18.9 °C 30.00in /  1015.8hPa WNW 5.0mph /  8km/h 13.0mph /  20.9km/h 59% 0.00in /  0mm
11:05 9.9 °F /  -12.3 °C -1.6 °F /  -18.7 °C 30.00in /  1015.8hPa WNW 3.0mph /  4.8km/h 13.0mph /  20.9km/h 59% 0.00in /  0mm
11:10 10.4 °F /  -12 °C -1.5 °F /  -18.6 °C 30.01in /  1016.1hPa West 1.0mph /  1.6km/h 13.0mph /  20.9km/h 58% 0.00in /  0mm
11:15 11.0 °F /  -11.7 °C -1.3 °F /  -18.5 °C 30.01in /  1016.1hPa WSW 2.0mph /  3.2km/h 13.0mph /  20.9km/h 57% 0.00in /  0mm
11:20 11.0 °F /  -11.7 °C -1.6 °F /  -18.7 °C 30.01in /  1016.1hPa WNW 3.0mph /  4.8km/h 8.0mph /  12.9km/h 56% 0.00in /  0mm
11:25 11.2 °F /  -11.6 °C -1.5 °F /  -18.6 °C 30.01in /  1016.1hPa WNW 5.0mph /  8km/h 9.0mph /  14.5km/h 56% 0.00in /  0mm
11:30 11.2 °F /  -11.6 °C -1.5 °F /  -18.6 °C 30.02in /  1016.5hPa West 5.0mph /  8km/h 10.0mph /  16.1km/h 56% 0.00in /  0mm
11:35 11.7 °F /  -11.3 °C -1.0 °F /  -18.3 °C 30.02in /  1016.5hPa SW 3.0mph /  4.8km/h 10.0mph /  16.1km/h 56% 0.00in /  0mm
11:40 12.1 °F /  -11.1 °C -1.0 °F /  -18.3 °C 30.02in /  1016.5hPa WNW 4.0mph /  6.4km/h 9.0mph /  14.5km/h 55% 0.00in /  0mm
11:45 12.2 °F /  -11 °C -0.9 °F /  -18.3 °C 30.03in /  1016.8hPa NNW 4.0mph /  6.4km/h 18.0mph /  29km/h 55% 0.00in /  0mm
11:50 12.3 °F /  -10.9 °C -0.8 °F /  -18.2 °C 30.03in /  1016.8hPa West 4.0mph /  6.4km/h 18.0mph /  29km/h 55% 0.00in /  0mm
12:00 12.6 °F /  -10.8 °C -1.3 °F /  -18.5 °C 30.03in /  1016.8hPa WNW 1.0mph /  1.6km/h 7.0mph /  11.3km/h 53% 0.00in /  0mm
12:05 13.0 °F /  -10.6 °C -0.9 °F /  -18.3 °C 30.03in /  1016.8hPa WSW 2.0mph /  3.2km/h 7.0mph /  11.3km/h 53% 0.00in /  0mm
12:10 13.4 °F /  -10.3 °C -0.6 °F /  -18.1 °C 30.03in /  1016.8hPa WNW 4.0mph /  6.4km/h 7.0mph /  11.3km/h 53% 0.00in /  0mm
12:15 13.4 °F /  -10.3 °C -1.0 °F /  -18.3 °C 30.04in /  1017.2hPa NW 3.0mph /  4.8km/h 10.0mph /  16.1km/h 52% 0.00in /  0mm
12:20 14.3 °F /  -9.8 °C -0.1 °F /  -17.8 °C 30.04in /  1017.2hPa NNW 4.0mph /  6.4km/h 10.0mph /  16.1km/h 52% 0.00in /  0mm
12:25 14.7 °F /  -9.6 °C -0.2 °F /  -17.9 °C 30.04in /  1017.2hPa NNW 5.0mph /  8km/h 10.0mph /  16.1km/h 51% 0.00in /  0mm
12:30 14.8 °F /  -9.6 °C -0.5 °F /  -18.1 °C 30.04in /  1017.2hPa NW 3.0mph /  4.8km/h 10.0mph /  16.1km/h 50% 0.00in /  0mm
12:40 14.3 °F /  -9.8 °C -0.5 °F /  -18.1 °C 30.04in /  1017.2hPa WNW 6.0mph /  9.7km/h 10.0mph /  16.1km/h 51% 0.00in /  0mm
12:50 15.3 °F /  -9.3 °C -0.5 °F /  -18.1 °C 30.04in /  1017.2hPa WNW 4.0mph /  6.4km/h 7.0mph /  11.3km/h 49% 0.00in /  0mm
13:00 14.2 °F /  -9.9 °C -1.1 °F /  -18.4 °C 30.05in /  1017.5hPa WSW 6.0mph /  9.7km/h 10.0mph /  16.1km/h 50% 0.00in /  0mm
13:05 14.0 °F /  -10 °C -1.2 °F /  -18.4 °C 30.05in /  1017.5hPa West 2.0mph /  3.2km/h 10.0mph /  16.1km/h 50% 0.00in /  0mm
13:10 14.9 °F /  -9.5 °C 0.0 °F /  -17.8 °C 30.05in /  1017.5hPa West 4.0mph /  6.4km/h 8.0mph /  12.9km/h 51% 0.00in /  0mm
13:15 15.5 °F /  -9.2 °C 0.2 °F /  -17.7 °C 30.05in /  1017.5hPa WSW 2.0mph /  3.2km/h 8.0mph /  12.9km/h 50% 0.00in /  0mm
13:20 15.9 °F /  -8.9 °C 0.1 °F /  -17.7 °C 30.05in /  1017.5hPa WNW 4.0mph /  6.4km/h 8.0mph /  12.9km/h 49% 0.00in /  0mm
13:25 15.4 °F /  -9.2 °C 0.1 °F /  -17.7 °C 30.05in /  1017.5hPa SW 3.0mph /  4.8km/h 8.0mph /  12.9km/h 50% 0.00in /  0mm
13:30 15.8 °F /  -9 °C 0.0 °F /  -17.8 °C 30.06in /  1017.8hPa West 1.0mph /  1.6km/h 8.0mph /  12.9km/h 49% 0.00in /  0mm
13:35 15.9 °F /  -8.9 °C -0.3 °F /  -17.9 °C 30.06in /  1017.8hPa West 4.0mph /  6.4km/h 8.0mph /  12.9km/h 48% 0.00in /  0mm
13:45 16.4 °F /  -8.7 °C 0.1 °F /  -17.7 °C 30.06in /  1017.8hPa NW 3.0mph /  4.8km/h 6.0mph /  9.7km/h 48% 0.00in /  0mm
13:50 17.1 °F /  -8.3 °C 1.2 °F /  -17.1 °C 30.06in /  1017.8hPa WNW 1.0mph /  1.6km/h 6.0mph /  9.7km/h 49% 0.00in /  0mm
13:55 17.4 °F /  -8.1 °C 0.6 °F /  -17.4 °C 30.06in /  1017.8hPa West 2.0mph /  3.2km/h 4.0mph /  6.4km/h 47% 0.00in /  0mm
14:00 17.7 °F /  -7.9 °C 0.9 °F /  -17.3 °C 30.07in /  1018.2hPa NNW 3.0mph /  4.8km/h 7.0mph /  11.3km/h 47% 0.00in /  0mm
14:05 17.5 °F /  -8.1 °C 1.1 °F /  -17.2 °C 30.07in /  1018.2hPa NNW 2.0mph /  3.2km/h 7.0mph /  11.3km/h 48% 0.00in /  0mm
14:10 17.7 °F /  -7.9 °C 1.3 °F /  -17.1 °C 30.07in /  1018.2hPa WNW 4.0mph /  6.4km/h 7.0mph /  11.3km/h 48% 0.00in /  0mm
14:15 17.5 °F /  -8.1 °C 0.7 °F /  -17.4 °C 30.07in /  1018.2hPa Calm   7.0mph /  11.3km/h 47% 0.00in /  0mm
14:20 17.6 °F /  -8 °C 0.8 °F /  -17.3 °C 30.08in /  1018.5hPa WNW 3.0mph /  4.8km/h 5.0mph /  8km/h 47% 0.00in /  0mm
14:25 17.9 °F /  -7.8 °C 1.5 °F /  -16.9 °C 30.08in /  1018.5hPa WNW 4.0mph /  6.4km/h 7.0mph /  11.3km/h 48% 0.00in /  0mm
14:35 18.3 °F /  -7.6 °C 1.0 °F /  -17.2 °C 30.08in /  1018.5hPa NW 4.0mph /  6.4km/h 7.0mph /  11.3km/h 46% 0.00in /  0mm
14:40 18.7 °F /  -7.4 °C 1.3 °F /  -17.1 °C 30.09in /  1018.8hPa NNW 1.0mph /  1.6km/h 7.0mph /  11.3km/h 46% 0.00in /  0mm
14:45 19.1 °F /  -7.2 °C 1.2 °F /  -17.1 °C 30.09in /  1018.8hPa Calm   7.0mph /  11.3km/h 45% 0.00in /  0mm
14:50 18.9 °F /  -7.3 °C 1.0 °F /  -17.2 °C 30.09in /  1018.8hPa WNW 4.0mph /  6.4km/h 7.0mph /  11.3km/h 45% 0.00in /  0mm
15:00 19.0 °F /  -7.2 °C 2.1 °F /  -16.6 °C 30.10in /  1019.2hPa NE 1.0mph /  1.6km/h 6.0mph /  9.7km/h 47% 0.00in /  0mm
15:05 19.2 °F /  -7.1 °C 1.8 °F /  -16.8 °C 30.10in /  1019.2hPa NW 4.0mph /  6.4km/h 9.0mph /  14.5km/h 46% 0.00in /  0mm
15:10 18.7 °F /  -7.4 °C 1.3 °F /  -17.1 °C 30.10in /  1019.2hPa WNW 1.0mph /  1.6km/h 9.0mph /  14.5km/h 46% 0.00in /  0mm
15:15 18.6 °F /  -7.4 °C 1.2 °F /  -17.1 °C 30.11in /  1019.5hPa Calm   7.0mph /  11.3km/h 46% 0.00in /  0mm
15:20 18.9 °F /  -7.3 °C 2.0 °F /  -16.7 °C 30.11in /  1019.5hPa WNW 2.0mph /  3.2km/h 6.0mph /  9.7km/h 47% 0.00in /  0mm
15:25 18.7 °F /  -7.4 °C 1.3 °F /  -17.1 °C 30.11in /  1019.5hPa NW 3.0mph /  4.8km/h 6.0mph /  9.7km/h 46% 0.00in /  0mm
15:30 18.9 °F /  -7.3 °C 2.0 °F /  -16.7 °C 30.11in /  1019.5hPa NW 2.0mph /  3.2km/h 7.0mph /  11.3km/h 47% 0.00in /  0mm
15:40 19.6 °F /  -6.9 °C 2.2 °F /  -16.6 °C 30.12in /  1019.9hPa NNW 3.0mph /  4.8km/h 6.0mph /  9.7km/h 46% 0.00in /  0mm
15:45 19.7 °F /  -6.8 °C 2.2 °F /  -16.6 °C 30.12in /  1019.9hPa Calm   6.0mph /  9.7km/h 46% 0.00in /  0mm
15:55 19.8 °F /  -6.8 °C 2.3 °F /  -16.5 °C 30.13in /  1020.2hPa North 2.0mph /  3.2km/h 5.0mph /  8km/h 46% 0.00in /  0mm
16:00 19.1 °F /  -7.2 °C 2.6 °F /  -16.3 °C 30.13in /  1020.2hPa North 1.0mph /  1.6km/h 6.0mph /  9.7km/h 48% 0.00in /  0mm
16:05 18.8 °F /  -7.3 °C 2.8 °F /  -16.2 °C 30.13in /  1020.2hPa NNW 1.0mph /  1.6km/h 7.0mph /  11.3km/h 49% 0.00in /  0mm
16:10 19.1 °F /  -7.2 °C 3.1 °F /  -16.1 °C 30.14in /  1020.5hPa NNE 1.0mph /  1.6km/h 8.0mph /  12.9km/h 49% 0.00in /  0mm
16:15 19.2 °F /  -7.1 °C 3.2 °F /  -16 °C 30.14in /  1020.5hPa North 1.0mph /  1.6km/h 8.0mph /  12.9km/h 49% 0.00in /  0mm
16:20 19.3 °F /  -7.1 °C 3.2 °F /  -16 °C 30.14in /  1020.5hPa North 1.0mph /  1.6km/h 7.0mph /  11.3km/h 49% 0.00in /  0mm
16:25 19.1 °F /  -7.2 °C 3.1 °F /  -16.1 °C 30.14in /  1020.5hPa NNW 1.0mph /  1.6km/h 7.0mph /  11.3km/h 49% 0.00in /  0mm
16:30 19.1 °F /  -7.2 °C 3.5 °F /  -15.8 °C 30.15in /  1020.9hPa Calm   5.0mph /  8km/h 50% 0.00in /  0mm
16:35 18.9 °F /  -7.3 °C 2.9 °F /  -16.2 °C 30.15in /  1020.9hPa Calm   5.0mph /  8km/h 49% 0.00in /  0mm
16:40 18.5 °F /  -7.5 °C 2.9 °F /  -16.2 °C 30.15in /  1020.9hPa North 1.0mph /  1.6km/h 6.0mph /  9.7km/h 50% 0.00in /  0mm
16:50 18.2 °F /  -7.7 °C 3.1 °F /  -16.1 °C 30.15in /  1020.9hPa Calm   4.0mph /  6.4km/h 51% 0.00in /  0mm
16:55 18.2 °F /  -7.7 °C 3.1 °F /  -16.1 °C 30.16in /  1021.2hPa Calm   4.0mph /  6.4km/h 51% 0.00in /  0mm
17:00 18.2 °F /  -7.7 °C 3.1 °F /  -16.1 °C 30.16in /  1021.2hPa North 2.0mph /  3.2km/h 6.0mph /  9.7km/h 51% 0.00in /  0mm
17:05 17.7 °F /  -7.9 °C 3.0 °F /  -16.1 °C 30.16in /  1021.2hPa North 1.0mph /  1.6km/h 6.0mph /  9.7km/h 52% 0.00in /  0mm
17:10 17.3 °F /  -8.2 °C 3.1 °F /  -16.1 °C 30.16in /  1021.2hPa Calm   5.0mph /  8km/h 53% 0.00in /  0mm
17:15 16.9 °F /  -8.4 °C 2.7 °F /  -16.3 °C 30.17in /  1021.6hPa NNW 1.0mph /  1.6km/h 5.0mph /  8km/h 53% 0.00in /  0mm
17:20 16.4 °F /  -8.7 °C 2.2 °F /  -16.6 °C 30.17in /  1021.6hPa Calm   5.0mph /  8km/h 53% 0.00in /  0mm
17:25 16.0 °F /  -8.9 °C 1.9 °F /  -16.7 °C 30.18in /  1021.9hPa North 1.0mph /  1.6km/h 4.0mph /  6.4km/h 53% 0.00in /  0mm
17:30 15.5 °F /  -9.2 °C 1.8 °F /  -16.8 °C 30.18in /  1021.9hPa Calm   4.0mph /  6.4km/h 54% 0.00in /  0mm
17:40 14.5 °F /  -9.7 °C 1.6 °F /  -16.9 °C 30.18in /  1021.9hPa NNE 1.0mph /  1.6km/h 4.0mph /  6.4km/h 56% 0.00in /  0mm
17:50 13.5 °F /  -10.3 °C 1.5 °F /  -16.9 °C 30.19in /  1022.2hPa Calm   3.0mph /  4.8km/h 58% 0.00in /  0mm
17:55 13.0 °F /  -10.6 °C 1.4 °F /  -17 °C 30.19in /  1022.2hPa Calm   3.0mph /  4.8km/h 59% 0.00in /  0mm
18:00 12.4 °F /  -10.9 °C 1.1 °F /  -17.2 °C 30.19in /  1022.2hPa Calm     60% 0.00in /  0mm
18:05 12.2 °F /  -11 °C 1.3 °F /  -17.1 °C 30.19in /  1022.2hPa Calm     61% 0.00in /  0mm
18:10 12.0 °F /  -11.1 °C 1.8 °F /  -16.8 °C 30.20in /  1022.6hPa Calm   2.0mph /  3.2km/h 63% 0.00in /  0mm
18:15 11.9 °F /  -11.2 °C 2.1 °F /  -16.6 °C 30.20in /  1022.6hPa Calm   2.0mph /  3.2km/h 64% 0.00in /  0mm
18:20 11.7 °F /  -11.3 °C 1.9 °F /  -16.7 °C 30.20in /  1022.6hPa Calm   3.0mph /  4.8km/h 64% 0.00in /  0mm
18:30 11.7 °F /  -11.3 °C 1.9 °F /  -16.7 °C 30.21in /  1022.9hPa North 1.0mph /  1.6km/h 4.0mph /  6.4km/h 64% 0.00in /  0mm
18:35 11.8 °F /  -11.2 °C 1.6 °F /  -16.9 °C 30.21in /  1022.9hPa Calm   4.0mph /  6.4km/h 63% 0.00in /  0mm
18:40 11.8 °F /  -11.2 °C 1.6 °F /  -16.9 °C 30.21in /  1022.9hPa Calm   4.0mph /  6.4km/h 63% 0.00in /  0mm
18:45 11.6 °F /  -11.3 °C 1.4 °F /  -17 °C 30.22in /  1023.2hPa Calm   1.0mph /  1.6km/h 63% 0.00in /  0mm
18:50 11.3 °F /  -11.5 °C 1.5 °F /  -16.9 °C 30.22in /  1023.2hPa Calm   1.0mph /  1.6km/h 64% 0.00in /  0mm
18:55 11.0 °F /  -11.7 °C 1.5 °F /  -16.9 °C 30.22in /  1023.2hPa Calm     65% 0.00in /  0mm
19:00 10.9 °F /  -11.7 °C 1.4 °F /  -17 °C 30.23in /  1023.6hPa Calm   3.0mph /  4.8km/h 65% 0.00in /  0mm
19:05 10.8 °F /  -11.8 °C 1.3 °F /  -17.1 °C 30.23in /  1023.6hPa Calm   3.0mph /  4.8km/h 65% 0.00in /  0mm
19:10 10.8 °F /  -11.8 °C 3.5 °F /  -15.8 °C 30.23in /  1023.6hPa Calm   3.0mph /  4.8km/h 72% 0.00in /  0mm
19:15 10.9 °F /  -11.7 °C 1.4 °F /  -17 °C 30.24in /  1023.9hPa Calm   2.0mph /  3.2km/h 65% 0.00in /  0mm
19:20 11.2 °F /  -11.6 °C 1.7 °F /  -16.8 °C 30.24in /  1023.9hPa Calm   3.0mph /  4.8km/h 65% 0.00in /  0mm
19:30 11.4 °F /  -11.4 °C 2.2 °F /  -16.6 °C 30.24in /  1023.9hPa Calm   3.0mph /  4.8km/h 66% 0.00in /  0mm
19:40 11.4 °F /  -11.4 °C 2.2 °F /  -16.6 °C 30.25in /  1024.3hPa Calm   3.0mph /  4.8km/h 66% 0.00in /  0mm
19:50 11.2 °F /  -11.6 °C 2.1 °F /  -16.6 °C 30.26in /  1024.6hPa Calm   2.0mph /  3.2km/h 66% 0.00in /  0mm
19:55 11.3 °F /  -11.5 °C 2.1 °F /  -16.6 °C 30.26in /  1024.6hPa Calm   2.0mph /  3.2km/h 66% 0.00in /  0mm
20:00 11.4 °F /  -11.4 °C 2.6 °F /  -16.3 °C 30.26in /  1024.6hPa NNE 1.0mph /  1.6km/h 4.0mph /  6.4km/h 67% 0.00in /  0mm
20:05 11.6 °F /  -11.3 °C 2.4 °F /  -16.4 °C 30.27in /  1024.9hPa Calm   4.0mph /  6.4km/h 66% 0.00in /  0mm
20:10 11.8 °F /  -11.2 °C 2.6 °F /  -16.3 °C 30.27in /  1024.9hPa Calm   4.0mph /  6.4km/h 66% 0.00in /  0mm
20:15 11.9 °F /  -11.2 °C 2.4 °F /  -16.4 °C 30.27in /  1024.9hPa NNW 3.0mph /  4.8km/h 6.0mph /  9.7km/h 65% 0.00in /  0mm
20:20 12.0 °F /  -11.1 °C 2.5 °F /  -16.4 °C 30.27in /  1024.9hPa Calm   6.0mph /  9.7km/h 65% 0.00in /  0mm
20:25 12.3 °F /  -10.9 °C 2.8 °F /  -16.2 °C 30.28in /  1025.3hPa NNW 1.0mph /  1.6km/h 5.0mph /  8km/h 65% 0.00in /  0mm
20:30 12.4 °F /  -10.9 °C 2.5 °F /  -16.4 °C 30.28in /  1025.3hPa Calm   5.0mph /  8km/h 64% 0.00in /  0mm
20:40 12.0 °F /  -11.1 °C 2.2 °F /  -16.6 °C 30.29in /  1025.6hPa Calm   4.0mph /  6.4km/h 64% 0.00in /  0mm
20:45 11.8 °F /  -11.2 °C 2.0 °F /  -16.7 °C 30.29in /  1025.6hPa Calm   1.0mph /  1.6km/h 64% 0.00in /  0mm
20:50 11.6 °F /  -11.3 °C 1.8 °F /  -16.8 °C 30.29in /  1025.6hPa Calm   2.0mph /  3.2km/h 64% 0.00in /  0mm
20:55 11.7 °F /  -11.3 °C 2.2 °F /  -16.6 °C 30.29in /  1025.6hPa Calm   5.0mph /  8km/h 65% 0.00in /  0mm
21:00 11.8 °F /  -11.2 °C 2.0 °F /  -16.7 °C 30.29in /  1025.6hPa Calm   5.0mph /  8km/h 64% 0.00in /  0mm
21:05 11.6 °F /  -11.3 °C 1.8 °F /  -16.8 °C 30.30in /  1026hPa NNW 1.0mph /  1.6km/h 4.0mph /  6.4km/h 64% 0.00in /  0mm
21:10 11.6 °F /  -11.3 °C 1.8 °F /  -16.8 °C 30.30in /  1026hPa NW 1.0mph /  1.6km/h 4.0mph /  6.4km/h 64% 0.00in /  0mm
21:15 11.7 °F /  -11.3 °C 1.5 °F /  -16.9 °C 30.30in /  1026hPa NW 3.0mph /  4.8km/h 8.0mph /  12.9km/h 63% 0.00in /  0mm
21:20 12.0 °F /  -11.1 °C 1.8 °F /  -16.8 °C 30.31in /  1026.3hPa NW 2.0mph /  3.2km/h 8.0mph /  12.9km/h 63% 0.00in /  0mm
21:30 12.8 °F /  -10.7 °C 1.9 °F /  -16.7 °C 30.31in /  1026.3hPa NW 4.0mph /  6.4km/h 8.0mph /  12.9km/h 61% 0.00in /  0mm
21:40 12.8 °F /  -10.7 °C 1.9 °F /  -16.7 °C 30.32in /  1026.6hPa Calm   6.0mph /  9.7km/h 61% 0.00in /  0mm
21:45 12.5 °F /  -10.8 °C 1.2 °F /  -17.1 °C 30.32in /  1026.6hPa Calm   4.0mph /  6.4km/h 60% 0.00in /  0mm
21:50 12.6 °F /  -10.8 °C 1.7 °F /  -16.8 °C 30.32in /  1026.6hPa WNW 2.0mph /  3.2km/h 10.0mph /  16.1km/h 61% 0.00in /  0mm
21:55 12.2 °F /  -11 °C 1.3 °F /  -17.1 °C 30.32in /  1026.6hPa WNW 2.0mph /  3.2km/h 10.0mph /  16.1km/h 61% 0.00in /  0mm
22:00 12.0 °F /  -11.1 °C 1.1 °F /  -17.2 °C 30.33in /  1027hPa NW 2.0mph /  3.2km/h 6.0mph /  9.7km/h 61% 0.00in /  0mm
22:05 11.7 °F /  -11.3 °C 1.2 °F /  -17.1 °C 30.33in /  1027hPa NW 2.0mph /  3.2km/h 5.0mph /  8km/h 62% 0.00in /  0mm
22:10 11.3 °F /  -11.5 °C 0.5 °F /  -17.5 °C 30.33in /  1027hPa NW 1.0mph /  1.6km/h 5.0mph /  8km/h 61% 0.00in /  0mm
22:15 10.8 °F /  -11.8 °C 0.7 °F /  -17.4 °C 30.33in /  1027hPa Calm   2.0mph /  3.2km/h 63% 0.00in /  0mm
22:20 10.5 °F /  -11.9 °C 0.4 °F /  -17.6 °C 30.33in /  1027hPa Calm     63% 0.00in /  0mm
22:25 10.3 °F /  -12.1 °C 0.5 °F /  -17.5 °C 30.33in /  1027hPa Calm   2.0mph /  3.2km/h 64% 0.00in /  0mm
22:30 10.1 °F /  -12.2 °C 0.7 °F /  -17.4 °C 30.33in /  1027hPa Calm   2.0mph /  3.2km/h 65% 0.00in /  0mm
22:40 9.8 °F /  -12.3 °C 0.7 °F /  -17.4 °C 30.34in /  1027.3hPa Calm     66% 0.00in /  0mm
22:45 9.8 °F /  -12.3 °C 0.7 °F /  -17.4 °C 30.34in /  1027.3hPa Calm     66% 0.00in /  0mm
22:55 8.8 °F /  -12.9 °C 0.1 °F /  -17.7 °C 30.35in /  1027.7hPa Calm     67% 0.00in /  0mm
23:00 8.8 °F /  -12.9 °C 0.4 °F /  -17.6 °C 30.35in /  1027.7hPa Calm     68% 0.00in /  0mm
23:05 8.7 °F /  -12.9 °C 0.3 °F /  -17.6 °C 30.35in /  1027.7hPa Calm     68% 0.00in /  0mm
23:10 8.9 °F /  -12.8 °C 0.5 °F /  -17.5 °C 30.35in /  1027.7hPa Calm     68% 0.00in /  0mm
23:15 8.9 °F /  -12.8 °C 0.5 °F /  -17.5 °C 30.35in /  1027.7hPa Calm     68% 0.00in /  0mm
23:20 8.7 °F /  -12.9 °C 0.6 °F /  -17.4 °C 30.35in /  1027.7hPa Calm     69% 0.00in /  0mm
23:25 8.6 °F /  -13 °C 0.5 °F /  -17.5 °C 30.35in /  1027.7hPa Calm     69% 0.00in /  0mm
23:35 8.1 °F /  -13.3 °C 0.0 °F /  -17.8 °C 30.35in /  1027.7hPa Calm     69% 0.00in /  0mm
23:40 7.8 °F /  -13.4 °C 0.1 °F /  -17.7 °C 30.36in /  1028hPa Calm     70% 0.00in /  0mm
23:45 7.9 °F /  -13.4 °C 0.4 °F /  -17.6 °C 30.36in /  1028hPa Calm     71% 0.00in /  0mm
23:50 8.2 °F /  -13.2 °C 1.0 °F /  -17.2 °C 30.36in /  1028hPa Calm     72% 0.00in /  0mm
Westford Weather
Compliments of Weather Underground

 
 
Current Radar Loop:

Copyright © WestfordWeather.net 2007-2014. All rights reserved.